SM6PGP-2 Weather Reports


Display with metric or nautical units.
time (UTC)temp
F
wind
direction
speed
MPH
gust
MPH
rain 1hr
in
rain 24hr
in
rain mn
in
humidity
%
barometer
mb
20210625070325 64 225 8.0 10.0 0.00 0.00 0.00 57 1013.9
20210625065820 64 234 5.0 9.0 0.00 0.00 0.00 57 1013.8
20210625065315 65 225 10.0 15.0 0.00 0.00 0.00 56 1013.7
20210625064810 65 225 9.0 15.0 0.00 0.00 0.00 58 1013.6
20210625064305 64 225 3.0 8.0 0.00 0.00 0.00 61 1013.7
20210625063759 64 243 4.0 6.0 0.00 0.00 0.00 60 1013.8
20210625063254 65 261 5.0 7.0 0.00 0.00 0.00 60 1013.8
20210625062749 64 229 2.0 4.0 0.00 0.00 0.00 63 1013.8
20210625062244 63 319 3.0 5.0 0.00 0.00 0.00 64 1013.8
20210625061739 64 225 6.0 8.0 0.00 0.00 0.00 62 1013.8
20210625061233 65 234 7.0 7.0 0.00 0.00 0.00 63 1013.9
20210625060728 65 261 3.0 11.0 0.00 0.00 0.00 64 1013.6
20210625060223 65 310 2.0 6.0 0.00 0.00 0.00 67 1013.8
20210625055718 65 112 1.0 3.0 0.00 0.00 0.00 70 1013.9
20210625055213 63 180 1.0 2.0 0.00 0.00 0.00 73 1013.9
20210625054707 63 121 0.0 3.0 0.00 0.00 0.00 75 1014.0
20210625054202 62 90 1.0 2.0 0.00 0.00 0.00 76 1014.2
20210625053657 62 135 1.0 1.0 0.00 0.00 0.00 76 1014.0
20210625053152 62 135 0.0 1.0 0.00 0.00 0.00 77 1014.0
20210625052647 62 135 1.0 2.0 0.00 0.00 0.00 80 1013.9
20210625052141 61 90 1.0 2.0 0.00 0.00 0.00 81 1013.9
20210625051636 61 90 1.0 1.0 0.00 0.00 0.00 85 1014.0
20210625051131 60 90 2.0 2.0 0.00 0.00 0.00 85 1014.1
20210625050626 60 90 0.0 0.0 0.00 0.00 0.00 89 1014.1
20210625050121 58 90 0.0 0.0 0.00 0.00 0.00 89 1014.0
20210625045615 57 90 0.0 1.0 0.00 0.00 0.00 91 1014.0
20210625045110 56 180 0.0 0.0 0.00 0.00 0.00 91 1013.9
20210625044605 55 90 0.0 0.0 0.00 0.00 0.00 90 1014.0
20210625044100 55 135 0.0 0.0 0.00 0.00 0.00 91 1014.0
20210625043555 54 90 0.0 0.0 0.00 0.00 0.00 90 1014.0
20210625043049 54 90 0.0 0.0 0.00 0.00 0.00 91 1013.9
20210625042544 53 90 0.0 0.0 0.00 0.00 0.00 90 1014.0
20210625042039 53 90 0.0 0.0 0.00 0.00 0.00 91 1014.0
20210625041534 53 90 0.0 2.0 0.00 0.00 0.00 90 1014.1
20210625041029 52 180 1.0 1.0 0.00 0.00 0.00 91 1014.0
20210625040523 52 135 1.0 2.0 0.00 0.00 0.00 91 1014.0
20210625040018 52 135 1.0 1.0 0.00 0.00 0.00 91 1013.9
20210625035513 52 135 1.0 2.0 0.00 0.00 0.00 90 1014.0
20210625035008 52 135 0.0 0.0 0.00 0.00 0.00 90 1013.9
20210625034503 51 135 0.0 0.0 0.00 0.00 0.00 90 1013.9
20210625033957 51 90 0.0 0.0 0.00 0.00 0.00 90 1014.0
20210625033452 51 135 0.0 2.0 0.00 0.00 0.00 90 1014.0
20210625032947 51 135 0.0 0.0 0.00 0.00 0.00 91 1014.0
20210625032442 51 135 0.0 0.0 0.00 0.00 0.00 90 1014.0
20210625031937 51 135 0.0 1.0 0.00 0.00 0.00 90 1014.1
20210625031431 51 135 0.0 0.0 0.00 0.00 0.00 90 1014.2
20210625030418 51 90 0.0 0.0 0.00 0.00 0.00 89 1014.0
20210625025913 51 90 0.0 0.0 0.00 0.00 0.00 90 1014.1
20210625025408 51 90 0.0 0.0 0.00 0.00 0.00 88 1014.2
20210625024902 51 90 0.0 0.0 0.00 0.00 0.00 88 1014.2
20210625024357 51 135 0.0 0.0 0.00 0.00 0.00 88 1014.3
20210625023852 51 103 0.0 2.0 0.00 0.00 0.00 87 1014.2
20210625023347 51 90 0.0 2.0 0.00 0.00 0.00 88 1014.1
20210625022842 51 225 1.0 2.0 0.00 0.00 0.00 89 1014.2
20210625022336 51 90 0.0 2.0 0.00 0.00 0.00 88 1014.3
20210625021831 51 135 1.0 1.0 0.00 0.00 0.00 89 1014.3
20210625021326 51 180 1.0 1.0 0.00 0.00 0.00 87 1014.3
20210625020821 51 135 1.0 1.0 0.00 0.00 0.00 89 1014.1
20210625020316 52 90 0.0 0.0 0.00 0.00 0.00 87 1014.0
20210625015810 52 135 0.0 0.0 0.00 0.00 0.00 87 1014.2
20210625015305 52 135 0.0 2.0 0.00 0.00 0.00 88 1014.2
20210625014800 52 135 0.0 1.0 0.00 0.00 0.00 88 1014.3
20210625014255 52 135 1.0 2.0 0.00 0.00 0.00 87 1014.3
20210625013750 53 135 1.0 3.0 0.00 0.00 0.00 86 1014.4
20210625013244 53 90 0.0 0.0 0.00 0.00 0.00 87 1014.4
20210625012739 53 90 0.0 0.0 0.00 0.00 0.00 86 1014.4
20210625012234 54 90 0.0 0.0 0.00 0.00 0.00 86 1014.4
20210625011729 54 90 0.0 0.0 0.00 0.00 0.00 87 1014.4
20210625011224 54 135 0.0 0.0 0.00 0.00 0.00 86 1014.4
20210625010718 54 90 0.0 0.0 0.00 0.00 0.00 87 1014.5
20210625010213 55 135 1.0 1.0 0.00 0.00 0.00 89 1014.5
20210625005708 55 180 1.0 2.0 0.00 0.00 0.00 88 1014.6
20210625005203 55 180 2.0 3.0 0.00 0.00 0.00 88 1014.6
20210625004658 55 90 0.0 0.0 0.00 0.00 0.00 88 1014.6
20210625004152 55 90 0.0 2.0 0.00 0.00 0.00 88 1014.7
20210625003647 55 45 1.0 1.0 0.00 0.00 0.00 89 1014.6
20210625003142 54 45 1.0 2.0 0.00 0.00 0.00 87 1014.7
20210625002637 54 45 0.0 0.0 0.00 0.00 0.00 90 1014.7
20210625002132 54 45 0.0 0.0 0.00 0.00 0.00 89 1014.8
20210625001626 53 90 0.0 0.0 0.00 0.00 0.00 89 1014.8
20210625001121 53 90 0.0 0.0 0.00 0.00 0.00 88 1014.9
20210625000616 53 90 0.0 0.0 0.00 0.00 0.00 88 1014.8
20210625000111 53 135 0.0 0.0 0.00 0.00 0.00 88 1014.8
20210624235606 53 90 0.0 0.0 0.00 0.00 0.00 88 1014.8
20210624235100 53 90 0.0 1.0 0.00 0.00 0.00 88 1014.7
20210624234555 52 225 1.0 2.0 0.00 0.00 0.00 88 1014.8
20210624234050 52 202 2.0 2.0 0.00 0.00 0.00 88 1014.9
20210624233715 52 90 0.0 0.0 0.00 0.00 0.00 87 1014.9
20210624233545 52 90 0.0 0.0 0.00 0.00 0.00 87 1014.9
20210624233040 52 90 0.0 0.0 0.00 0.00 0.00 86 1014.9
20210624232534 52 135 0.0 0.0 0.00 0.00 0.00 87 1014.9
20210624232029 52 90 0.0 0.0 0.00 0.00 0.00 86 1015.0
20210624231524 52 90 0.0 0.0 0.00 0.00 0.00 86 1015.0
20210624231019 52 90 0.0 0.0 0.00 0.00 0.00 85 1015.0
20210624230514 53 90 0.0 0.0 0.00 0.00 0.00 85 1015.0
20210624230008 53 90 0.0 0.0 0.00 0.00 0.00 86 1015.1
20210624225503 53 0 1.0 2.0 0.00 0.00 0.00 86 1015.1
20210624224958 53 328 1.0 1.0 0.00 0.00 0.00 86 1015.1
20210624224453 53 45 0.0 2.0 0.00 0.00 0.00 85 1015.2
20210624223948 53 9 3.0 3.0 0.00 0.00 0.00 86 1015.2
20210624223442 53 45 1.0 1.0 0.00 0.00 0.00 85 1015.2
20210624222937 53 90 0.0 0.0 0.00 0.00 0.00 84 1015.2
20210624222432 53 76 0.0 2.0 0.00 0.00 0.00 84 1015.3
20210624221927 53 45 0.0 2.0 0.00 0.00 0.00 85 1015.3
20210624221422 53 139 0.0 0.0 0.00 0.00 0.00 86 1015.4
20210624220916 53 45 0.0 1.0 0.00 0.00 0.00 84 1015.4
20210624220411 54 45 0.0 2.0 0.00 0.00 0.00 84 1015.4
20210624215906 54 310 2.0 2.0 0.00 0.00 0.00 85 1015.5
20210624215401 54 292 2.0 2.0 0.00 0.00 0.00 84 1015.4
20210624214856 54 315 1.0 1.0 0.00 0.00 0.00 83 1015.4
20210624214351 54 0 2.0 2.0 0.00 0.00 0.00 83 1015.4
20210624213845 54 0 0.0 3.0 0.00 0.00 0.00 83 1015.3
20210624213340 54 0 0.0 1.0 0.00 0.00 0.00 83 1015.4
20210624212835 55 315 1.0 2.0 0.00 0.00 0.00 82 1015.3
20210624212330 55 45 0.0 2.0 0.00 0.00 0.00 82 1015.3
20210624211825 55 9 1.0 3.0 0.00 0.00 0.00 82 1015.2
20210624211319 55 90 0.0 2.0 0.00 0.00 0.00 82 1015.2
20210624210814 55 0 3.0 4.0 0.00 0.00 0.00 81 1015.3
20210624210309 55 342 1.0 1.0 0.00 0.00 0.00 80 1015.2
20210624205804 55 258 1.0 2.0 0.00 0.00 0.00 79 1015.4
20210624205259 56 279 1.0 2.0 0.00 0.00 0.00 79 1015.3
20210624204753 56 90 0.0 0.0 0.00 0.00 0.00 78 1015.3
20210624204248 56 90 0.0 2.0 0.00 0.00 0.00 77 1015.1
20210624203743 56 0 0.0 5.0 0.00 0.00 0.00 78 1015.2
20210624203238 57 315 0.0 2.0 0.00 0.00 0.00 77 1015.0
20210624202732 57 72 1.0 3.0 0.00 0.00 0.00 76 1015.0
20210624202227 57 27 2.0 4.0 0.00 0.00 0.00 75 1015.0
20210624201722 58 27 1.0 4.0 0.00 0.00 0.00 75 1015.0
20210624201217 58 315 1.0 2.0 0.00 0.00 0.00 75 1015.0
20210624200712 58 328 2.0 3.0 0.00 0.00 0.00 74 1014.9
20210624200207 59 85 0.0 1.0 0.00 0.00 0.00 72 1014.9
20210624195701 59 90 0.0 0.0 0.00 0.00 0.00 72 1014.9
20210624195156 60 45 0.0 2.0 0.00 0.00 0.00 70 1014.8
20210624194651 60 315 1.0 3.0 0.00 0.00 0.00 69 1014.8
20210624194146 61 328 3.0 4.0 0.00 0.00 0.00 68 1014.9
20210624193641 62 346 1.0 4.0 0.00 0.00 0.00 67 1015.0
20210624193135 62 72 0.0 4.0 0.00 0.00 0.00 66 1014.9
20210624192630 62 22 1.0 4.0 0.00 0.00 0.00 66 1014.8
20210624192125 63 31 1.0 5.0 0.00 0.00 0.00 65 1014.8
20210624191620 63 0 1.0 6.0 0.00 0.00 0.00 65 1014.9
20210624191115 63 297 5.0 5.0 0.00 0.00 0.00 64 1014.9
20210624190609 64 4 3.0 8.0 0.00 0.00 0.00 63 1015.1
20210624190104 64 298 2.0 7.0 0.00 0.00 0.00 62 1015.0
20210624185559 64 72 1.0 6.0 0.00 0.00 0.00 62 1015.1
20210624185054 65 0 5.0 10.0 0.00 0.00 0.00 61 1015.0
20210624184549 65 4 1.0 7.0 0.00 0.00 0.00 61 1015.1
20210624184043 65 31 3.0 6.0 0.00 0.00 0.00 60 1015.1
20210624183538 66 9 2.0 7.0 0.00 0.00 0.00 59 1015.2
20210624183033 66 315 2.0 8.0 0.00 0.00 0.00 60 1015.2
20210624182528 66 297 1.0 7.0 0.00 0.00 0.00 59 1015.3
20210624182023 66 9 4.0 6.0 0.00 0.00 0.00 59 1015.1
20210624181518 66 261 4.0 6.0 0.00 0.00 0.00 58 1015.1
20210624181012 66 0 2.0 7.0 0.00 0.00 0.00 58 1015.1
20210624180507 66 310 11.0 12.0 0.00 0.00 0.00 58 1015.1
20210624180002 66 265 5.0 9.0 0.00 0.00 0.00 57 1015.2
20210624175457 67 333 4.0 11.0 0.00 0.00 0.00 58 1015.2
20210624174952 67 270 5.0 13.0 0.00 0.00 0.00 57 1015.2
20210624174446 67 0 5.0 10.0 0.00 0.00 0.00 57 1015.3
20210624173941 67 9 6.0 10.0 0.00 0.00 0.00 57 1015.3
20210624173436 67 279 6.0 10.0 0.00 0.00 0.00 58 1015.3
20210624172931 67 351 7.0 8.0 0.00 0.00 0.00 56 1015.4
20210624172426 67 261 6.0 11.0 0.00 0.00 0.00 55 1015.5
20210624171921 67 310 3.0 7.0 0.00 0.00 0.00 56 1015.4
20210624171415 67 306 7.0 11.0 0.00 0.00 0.00 54 1015.5
20210624170910 67 252 7.0 11.0 0.00 0.00 0.00 54 1015.5
20210624170405 67 234 6.0 11.0 0.00 0.00 0.00 52 1015.6
20210624165900 68 270 8.0 12.0 0.00 0.00 0.00 51 1015.6
20210624165354 68 337 10.0 10.0 0.00 0.00 0.00 51 1015.6
20210624164849 68 324 10.0 15.0 0.00 0.00 0.00 50 1015.6
20210624164344 69 270 8.0 11.0 0.00 0.00 0.00 51 1015.7
20210624163839 69 0 7.0 12.0 0.00 0.00 0.00 49 1015.6
20210624163334 70 333 4.0 9.0 0.00 0.00 0.00 49 1015.7
20210624162828 69 288 3.0 8.0 0.00 0.00 0.00 49 1015.8
20210624162323 69 355 3.0 10.0 0.00 0.00 0.00 51 1015.8
20210624161818 69 310 9.0 12.0 0.00 0.00 0.00 49 1015.8
20210624161313 69 288 9.0 13.0 0.00 0.00 0.00 51 1015.9
20210624160808 70 265 10.0 10.0 0.00 0.00 0.00 49 1016.0
20210624160302 70 234 10.0 10.0 0.00 0.00 0.00 48 1016.0
20210624155757 70 310 3.0 9.0 0.00 0.00 0.00 48 1016.1
20210624155253 70 324 5.0 10.0 0.00 0.00 0.00 47 1016.2
20210624154747 70 328 6.0 11.0 0.00 0.00 0.00 47 1016.2
20210624154242 70 297 3.0 11.0 0.00 0.00 0.00 47 1016.4
20210624153737 70 315 7.0 8.0 0.00 0.00 0.00 49 1016.4
20210624153231 69 15 4.0 9.0 0.00 0.00 0.00 49 1016.5
20210624152727 70 243 10.0 16.0 0.00 0.00 0.00 49 1016.5
20210624152221 70 288 4.0 11.0 0.00 0.00 0.00 50 1016.7
20210624151716 69 279 11.0 11.0 0.00 0.00 0.00 49 1016.6
20210624151210 69 288 5.0 12.0 0.00 0.00 0.00 47 1016.6
20210624150705 69 252 10.0 14.0 0.00 0.00 0.00 49 1016.7
20210624150201 69 234 11.0 15.0 0.00 0.00 0.00 49 1016.6
20210624145655 68 225 5.0 10.0 0.00 0.00 0.00 50 1016.7
20210624145150 68 225 11.0 14.0 0.00 0.00 0.00 48 1016.6
20210624144645 68 247 7.0 11.0 0.00 0.00 0.00 48 1016.7
20210624144139 68 292 4.0 14.0 0.00 0.00 0.00 49 1016.8
20210624143635 69 234 13.0 13.0 0.00 0.00 0.00 46 1016.8
20210624143129 69 270 4.0 11.0 0.00 0.00 0.00 47 1016.9
20210624142624 69 225 11.0 14.0 0.00 0.00 0.00 46 1016.9
20210624141610 70 261 10.0 15.0 0.00 0.00 0.00 47 1016.9
20210624141106 70 270 14.0 14.0 0.00 0.00 0.00 47 1016.9
20210624140600 70 238 3.0 8.0 0.00 0.00 0.00 47 1016.9
20210624140055 70 270 10.0 11.0 0.00 0.00 0.00 45 1016.8
20210624135550 70 30 9.0 12.0 0.00 0.00 0.00 47 1016.9
20210624135044 70 331 6.0 10.0 0.00 0.00 0.00 49 1016.9
20210624134540 70 342 6.0 11.0 0.00 0.00 0.00 49 1016.9
20210624134034 70 346 3.0 11.0 0.00 0.00 0.00 50 1016.9
20210624133529 70 351 8.0 13.0 0.00 0.00 0.00 49 1016.9
20210624133024 70 261 8.0 11.0 0.00 0.00 0.00 49 1016.8
20210624132518 70 346 6.0 13.0 0.00 0.00 0.00 50 1016.7
20210624132014 70 252 9.0 12.0 0.00 0.00 0.00 46 1016.8
20210624131508 70 270 6.0 14.0 0.00 0.00 0.00 47 1016.7
20210624131003 70 315 3.0 10.0 0.00 0.00 0.00 47 1016.7
20210624130458 69 315 8.0 12.0 0.00 0.00 0.00 48 1016.8
20210624125953 69 247 10.0 10.0 0.00 0.00 0.00 46 1016.7
20210624125448 70 301 9.0 13.0 0.00 0.00 0.00 44 1016.8
20210624124942 70 315 3.0 14.0 0.00 0.00 0.00 46 1016.8
20210624124437 70 22 3.0 9.0 0.00 0.00 0.00 43 1016.9
20210624123932 69 270 8.0 11.0 0.00 0.00 0.00 42 1016.8
20210624123427 69 315 2.0 14.0 0.00 0.00 0.00 41 1016.9
20210624122922 69 243 7.0 12.0 0.00 0.00 0.00 44 1017.0
20210624122416 70 261 6.0 17.0 0.00 0.00 0.00 46 1016.9
20210624121911 70 256 4.0 9.0 0.00 0.00 0.00 45 1016.9
20210624121406 70 265 10.0 13.0 0.00 0.00 0.00 42 1016.9
20210624120901 70 270 4.0 13.0 0.00 0.00 0.00 37 1016.8
20210624120356 70 270 9.0 11.0 0.00 0.00 0.00 38 1016.9
20210624115850 71 270 6.0 11.0 0.00 0.00 0.00 41 1016.9
20210624115345 71 261 5.0 9.0 0.00 0.00 0.00 41 1017.0
20210624114840 70 288 3.0 9.0 0.00 0.00 0.00 41 1017.1
20210624114335 70 342 8.0 8.0 0.00 0.00 0.00 44 1017.0
20210624113830 70 306 4.0 8.0 0.00 0.00 0.00 44 1017.1
20210624113324 70 297 7.0 8.0 0.00 0.00 0.00 45 1017.3
20210624112819 69 279 8.0 10.0 0.00 0.00 0.00 46 1017.3
20210624112314 69 270 3.0 11.0 0.00 0.00 0.00 47 1017.4
20210624111809 68 225 10.0 12.0 0.00 0.00 0.00 48 1017.4
20210624111304 68 265 7.0 12.0 0.00 0.00 0.00 47 1017.5
20210624110758 69 265 9.0 15.0 0.00 0.00 0.00 44 1017.7
20210624110253 69 270 6.0 7.0 0.00 0.00 0.00 50 1017.8
20210624105748 69 270 8.0 10.0 0.00 0.00 0.00 47 1017.8
20210624105243 69 229 11.0 13.0 0.00 0.00 0.00 44 1017.6
20210624104738 69 261 4.0 10.0 0.00 0.00 0.00 46 1017.6
20210624104232 69 270 11.0 11.0 0.00 0.00 0.00 46 1017.6
20210624103727 69 180 4.0 10.0 0.00 0.00 0.00 46 1017.5
20210624103222 69 270 7.0 12.0 0.00 0.00 0.00 46 1017.5
20210624102717 69 288 5.0 11.0 0.00 0.00 0.00 46 1017.5
20210624102212 69 265 12.0 12.0 0.00 0.00 0.00 44 1017.6
20210624101706 69 306 6.0 10.0 0.00 0.00 0.00 44 1017.7
20210624101201 69 297 5.0 13.0 0.00 0.00 0.00 43 1017.8
20210624100656 69 243 6.0 10.0 0.00 0.00 0.00 45 1017.9
20210624100151 69 310 2.0 10.0 0.00 0.00 0.00 45 1017.9
20210624095646 69 185 3.0 10.0 0.00 0.00 0.00 45 1018.0
20210624095140 69 135 7.0 10.0 0.00 0.00 0.00 46 1018.0
20210624094635 69 270 7.0 9.0 0.00 0.00 0.00 47 1018.0
20210624094130 69 279 11.0 16.0 0.00 0.00 0.00 50 1017.9
20210624093625 69 283 7.0 10.0 0.00 0.00 0.00 49 1017.8
20210624093120 69 243 8.0 11.0 0.00 0.00 0.00 52 1017.9
20210624092614 69 292 7.0 8.0 0.00 0.00 0.00 51 1018.0
20210624092109 69 288 8.0 10.0 0.00 0.00 0.00 52 1018.0
20210624091604 69 315 8.0 8.0 0.00 0.00 0.00 53 1018.0
20210624091059 68 270 2.0 10.0 0.00 0.00 0.00 52 1018.0
20210624090554 68 256 7.0 7.0 0.00 0.00 0.00 53 1018.1
20210624090048 68 225 7.0 12.0 0.00 0.00 0.00 51 1018.1
20210624085543 68 234 2.0 7.0 0.00 0.00 0.00 52 1018.1
20210624085038 67 256 4.0 14.0 0.00 0.00 0.00 49 1018.1
20210624084533 67 297 6.0 11.0 0.00 0.00 0.00 56 1018.0
20210624084028 67 270 13.0 13.0 0.00 0.00 0.00 51 1018.1
20210624083522 67 270 9.0 13.0 0.00 0.00 0.00 53 1018.1
20210624083017 67 306 3.0 9.0 0.00 0.00 0.00 56 1018.2
20210624082512 67 234 11.0 14.0 0.00 0.00 0.00 54 1018.0
20210624082007 67 238 10.0 13.0 0.00 0.00 0.00 54 1018.0
20210624081502 67 225 9.0 13.0 0.00 0.00 0.00 54 1018.0
20210624080956 67 256 8.0 14.0 0.00 0.00 0.00 53 1018.0
20210624080451 67 315 4.0 12.0 0.00 0.00 0.00 55 1018.0
20210624075946 67 229 5.0 12.0 0.00 0.00 0.00 53 1017.9
20210624075441 67 243 2.0 6.0 0.00 0.00 0.00 56 1017.9
20210624074936 67 270 7.0 11.0 0.00 0.00 0.00 56 1017.9
20210624074430 66 270 9.0 11.0 0.00 0.00 0.00 55 1018.1
20210624073925 66 297 7.0 11.0 0.00 0.00 0.00 57 1018.0
20210624073420 66 256 9.0 12.0 0.00 0.00 0.00 56 1018.0
20210624072915 66 261 9.0 10.0 0.00 0.00 0.00 58 1018.0
20210624072410 66 261 5.0 10.0 0.00 0.00 0.00 60 1018.0
20210624071904 65 252 6.0 8.0 0.00 0.00 0.00 58 1018.0
20210624071359 66 270 6.0 11.0 0.00 0.00 0.00 56 1018.0
20210624070854 66 306 6.0 11.0 0.00 0.00 0.00 58 1018.0